Terminal Aerodrome Forecast
Issued by NWS

Home | Current Version | Previous Version | Text Only | Print | Product List | Glossary On
Versions: 1 2 3 4 5 6 7 8 9 10 11 12 13 14 15 16
000
FTUS41 KCAR 241135
TAFHUL
TAF
KHUL 241135Z 2412/2512 20008KT P6SM OVC060
     FM241600 20010G18KT P6SM VCSH OVC030
     FM241800 20010G18KT 3SM -SN BR OVC015
     FM250300 27008KT P6SM BKN015 OVC025
     FM250700 33010KT P6SM BKN050=

USA.gov is the U.S. government's official web portal to all federal, state and local government web resources and services.